Time;durP1;ratioP1;P1;durP2;ratioP2;P2;SDS_P1;SDS_P2;PMS_P1;PMS_P2;Temp;Humidity;BMP_temperature;BMP_pressure;BME280_temperature;BME280_humidity;BME280_pressure;Samples;Min_cycle;Max_cycle;Signal;HPM_P1;HPM_P2
2023/03/16 00:01:06;;;;;;;12.05;4.53;;;;;;;-148.88;72.67;77491.94;5033625;28;20079;-83
2023/03/16 00:03:31;;;;;;;12.57;4.55;;;;;;;-148.88;72.93;77500.06;5015952;28;20075;-84
2023/03/16 00:05:57;;;;;;;10.68;3.90;;;;;;;-148.88;73.44;77504.13;5016846;28;20022;-82
2023/03/16 00:08:22;;;;;;;12.85;4.13;;;;;;;-148.88;73.53;77508.19;5034484;28;20067;-83
2023/03/16 00:10:48;;;;;;;7.57;3.80;;;;;;;-148.88;73.99;77512.25;5035529;28;20021;-82
2023/03/16 00:13:15;;;;;;;7.70;3.40;;;;;;;-148.88;72.81;77477.72;5036388;28;20045;-84
2023/03/16 00:15:48;;;;;;;9.80;4.00;;;;;;;-148.88;73.24;77481.78;5036970;28;20056;-83
2023/03/16 00:18:13;;;;;;;10.55;3.78;;;;;;;-148.88;73.84;77498.03;5037641;28;20108;-84
2023/03/16 00:20:38;;;;;;;7.30;3.40;;;;;;;-148.88;73.79;77491.94;5019630;28;20052;-84
2023/03/16 00:23:04;;;;;;;15.43;4.35;;;;;;;-148.88;73.63;77506.16;5018376;28;20452;-85
2023/03/16 00:25:32;;;;;;;7.85;3.30;;;;;;;-148.88;73.79;77498.03;5019020;28;20025;-84
2023/03/16 00:27:57;;;;;;;12.40;3.83;;;;;;;-148.88;74.29;77493.97;5035581;28;20395;-82
2023/03/16 00:30:23;;;;;;;7.28;3.55;;;;;;;-148.88;74.89;77512.25;5035436;28;20022;-84
2023/03/16 00:32:48;;;;;;;8.77;3.55;;;;;;;-148.88;74.60;77506.16;5035141;28;20033;-83
2023/03/16 00:35:13;;;;;;;7.88;3.33;;;;;;;-148.88;75.03;77514.28;5017533;28;20017;-84
2023/03/16 00:37:42;;;;;;;7.22;3.22;;;;;;;-148.88;74.92;77520.38;5034481;28;20079;-84
2023/03/16 00:40:08;;;;;;;6.45;2.95;;;;;;;-148.88;75.86;77522.41;5035064;28;20036;-83
2023/03/16 00:42:33;;;;;;;10.00;4.28;;;;;;;-148.88;76.12;77522.41;5035542;28;20040;-84
2023/03/16 00:45:00;;;;;;;10.63;3.25;;;;;;;-148.88;76.96;77532.59;5017851;28;20021;-83
2023/03/16 00:47:31;;;;;;;9.00;3.60;;;;;;;-148.88;77.64;77540.72;5033368;28;20056;-84
2023/03/16 00:49:57;;;;;;;7.25;3.42;;;;;;;-148.88;78.78;77550.88;5033021;28;20077;-82
2023/03/16 00:52:24;;;;;;;6.20;3.17;;;;;;;-148.88;80.14;77577.28;5016619;28;20507;-84
2023/03/16 00:54:52;;;;;;;7.53;3.03;;;;;;;-148.88;81.11;77593.53;5018152;28;20029;-84
2023/03/16 00:57:19;;;;;;;10.60;3.97;;;;;;;-148.88;81.91;77587.44;5036159;28;20113;-83
2023/03/16 00:59:45;;;;;;;10.43;4.53;;;;;;;-148.88;83.21;77593.53;5018055;28;20021;-83
2023/03/16 01:02:11;;;;;;;10.93;4.28;;;;;;;-148.88;83.92;77597.59;5017854;28;20021;-83
2023/03/16 01:04:38;;;;;;;6.30;3.08;;;;;;;-148.88;84.69;77597.59;5036206;28;20033;-84
2023/03/16 01:07:48;;;;;;;15.23;3.58;;;;;;;-148.88;86.06;77609.81;5018651;28;20112;-82
2023/03/16 01:10:13;;;;;;;10.45;3.63;;;;;;;-148.88;86.52;77609.81;4937044;29;20036;-83
2023/03/16 01:12:44;;;;;;;7.93;4.03;;;;;;;-148.88;85.61;77601.66;4936881;29;20051;-86
2023/03/16 01:15:09;;;;;;;9.10;3.38;;;;;;;-148.88;84.41;77587.44;4970765;28;20116;-85
2023/03/16 01:18:01;;;;;;;10.98;3.47;;;;;;;-148.88;83.26;77556.97;5015453;28;20124;-86
2023/03/16 01:20:26;;;;;;;11.68;3.50;;;;;;;-148.88;83.54;77573.22;5030975;28;20033;-83
2023/03/16 01:22:52;;;;;;;6.75;3.33;;;;;;;-148.88;82.99;77544.78;5032727;28;20021;-83
2023/03/16 01:25:17;;;;;;;7.55;3.08;;;;;;;-148.88;82.95;77575.25;5032884;28;20454;-83
2023/03/16 01:27:42;;;;;;;13.93;3.47;;;;;;;-148.88;84.00;77587.44;5033238;28;20488;-81
2023/03/16 01:30:11;;;;;;;15.07;4.32;;;;;;;-148.88;84.16;77585.41;5034067;28;20029;-84
2023/03/16 01:32:36;;;;;;;7.28;2.70;;;;;;;-148.88;83.70;77569.16;5017806;28;20503;-84
2023/03/16 01:35:03;;;;;;;6.45;2.65;;;;;;;-148.88;82.93;77561.03;5018613;28;20025;-83
2023/03/16 01:37:29;;;;;;;8.77;3.00;;;;;;;-148.88;81.97;77548.84;5035601;28;20087;-83
2023/03/16 01:39:54;;;;;;;5.88;2.42;;;;;;;-148.88;81.46;77548.84;5035719;28;20025;-84
2023/03/16 01:42:19;;;;;;;5.10;2.47;;;;;;;-148.88;81.46;77544.78;5017679;28;20057;-84
2023/03/16 01:44:56;;;;;;;7.25;2.63;;;;;;;-148.88;81.00;77540.72;5035869;28;20026;-83
2023/03/16 01:47:22;;;;;;;25.40;4.10;;;;;;;-148.88;80.89;77532.59;5018080;28;20033;-86
2023/03/16 01:49:53;;;;;;;7.68;2.63;;;;;;;-148.88;80.50;77526.47;5037427;28;20021;-85
2023/03/16 01:52:23;;;;;;;7.03;2.80;;;;;;;-148.88;80.25;77530.53;5019109;28;20476;-85
2023/03/16 01:54:53;;;;;;;8.98;3.08;;;;;;;-148.88;80.45;77524.44;5018456;28;20061;-86
2023/03/16 01:57:35;;;;;;;8.25;3.00;;;;;;;-148.88;80.72;77512.25;5035985;28;20021;-85
2023/03/16 02:00:17;;;;;;;7.53;2.95;;;;;;;-148.88;81.88;77522.41;5036339;28;20075;-85
2023/03/16 02:02:45;;;;;;;5.50;2.58;;;;;;;-148.88;82.59;77528.50;5018528;28;20037;-86
2023/03/16 02:05:32;;;;;;;8.38;3.13;;;;;;;-148.88;83.65;77544.78;5019105;28;20025;-85
2023/03/16 02:07:59;;;;;;;7.18;2.55;;;;;;;-148.88;84.44;77550.88;5018555;28;20495;-85
2023/03/16 02:10:30;;;;;;;10.90;3.20;;;;;;;-148.88;85.05;77554.94;5036550;28;20033;-85
2023/03/16 02:12:56;;;;;;;5.35;2.55;;;;;;;-148.88;84.67;77552.91;5036091;28;20038;-85
2023/03/16 02:15:22;;;;;;;5.82;2.67;;;;;;;-148.88;85.37;77559.00;5035871;28;20043;-85
2023/03/16 02:17:49;;;;;;;9.10;3.30;;;;;;;-148.88;85.76;77561.03;5036201;28;20120;-84
2023/03/16 02:20:41;;;;;;;7.18;2.92;;;;;;;-148.88;85.81;77556.97;5018292;28;20026;-85
2023/03/16 02:23:17;;;;;;;5.88;2.70;;;;;;;-148.88;85.46;77565.09;5036525;28;20026;-85
2023/03/16 02:26:21;;;;;;;6.22;2.33;;;;;;;-148.88;85.34;77565.09;5035877;28;20017;-85
2023/03/16 02:29:03;;;;;;;9.50;3.22;;;;;;;-148.88;85.38;77565.09;5018423;28;20021;-85
2023/03/16 02:31:29;;;;;;;8.10;3.17;;;;;;;-148.88;86.15;77565.09;5017860;28;20025;-85
2023/03/16 02:33:55;;;;;;;5.75;3.20;;;;;;;-148.88;86.13;77559.00;5035625;28;20387;-85
2023/03/16 02:36:21;;;;;;;8.48;3.85;;;;;;;-148.88;86.83;77569.16;5017965;28;20475;-86
2023/03/16 02:38:46;;;;;;;10.02;3.75;;;;;;;-148.88;87.26;77569.16;5018222;28;20033;-85
2023/03/16 02:41:19;;;;;;;5.95;3.40;;;;;;;-148.88;87.77;77579.31;5017349;28;20025;-85
2023/03/16 02:44:06;;;;;;;7.85;2.95;;;;;;;-148.88;87.04;77569.16;5035582;28;20111;-85
2023/03/16 02:46:34;;;;;;;6.95;3.20;;;;;;;-148.88;86.02;77550.88;5018181;28;20124;-85
2023/03/16 02:49:15;;;;;;;6.05;2.92;;;;;;;-148.88;85.74;77544.78;5017690;28;20029;-84
2023/03/16 02:51:41;;;;;;;8.75;3.65;;;;;;;-148.88;86.94;77563.06;5017647;28;20018;-85
2023/03/16 02:54:06;;;;;;;8.88;3.45;;;;;;;-148.88;88.18;77573.22;5035419;28;20392;-85
2023/03/16 02:56:31;;;;;;;8.73;3.50;;;;;;;-148.88;88.14;77571.19;5018046;28;20021;-85
2023/03/16 02:58:57;;;;;;;6.45;3.15;;;;;;;-148.88;87.76;77561.03;5017305;28;20032;-86
2023/03/16 03:01:23;;;;;;;9.38;3.60;;;;;;;-148.88;87.44;77556.97;5034153;28;20108;-85
2023/03/16 03:03:48;;;;;;;8.40;3.75;;;;;;;-148.88;87.83;77561.03;5035032;28;20419;-85
2023/03/16 03:06:14;;;;;;;11.73;3.70;;;;;;;-148.88;88.05;77554.94;5035275;28;20034;-85
2023/03/16 03:08:39;;;;;;;12.15;4.22;;;;;;;-148.88;88.75;77561.03;5017239;28;20088;-85
2023/03/16 03:11:04;;;;;;;14.13;5.03;;;;;;;-148.88;88.63;77569.16;5034977;28;20028;-86
2023/03/16 03:13:30;;;;;;;14.10;4.63;;;;;;;-148.88;88.74;77563.06;5035022;28;20099;-85
2023/03/16 03:15:55;;;;;;;14.43;5.10;;;;;;;-148.88;88.62;77565.09;5017495;28;20025;-84
2023/03/16 03:18:21;;;;;;;11.20;3.97;;;;;;;-148.88;89.65;77585.41;5034909;28;20037;-84
2023/03/16 03:20:46;;;;;;;11.52;3.92;;;;;;;-148.88;89.86;77591.50;5034859;28;20104;-85
2023/03/16 03:23:14;;;;;;;13.07;5.38;;;;;;;-148.88;88.44;77548.84;5017145;28;20091;-85
2023/03/16 03:25:39;;;;;;;14.70;5.18;;;;;;;-148.88;88.13;77565.09;5034751;28;20030;-85
2023/03/16 03:28:04;;;;;;;13.35;5.13;;;;;;;-148.88;89.57;77617.94;5017017;28;20022;-85
2023/03/16 03:30:30;;;;;;;11.40;4.70;;;;;;;-148.88;89.26;77613.88;5034539;28;20038;-85
2023/03/16 03:32:55;;;;;;;9.02;4.30;;;;;;;-148.88;89.53;77613.88;5016605;28;20444;-85
2023/03/16 03:35:21;;;;;;;10.77;4.50;;;;;;;-148.88;89.65;77617.94;5034568;28;20186;-85
2023/03/16 03:37:46;;;;;;;8.10;3.65;;;;;;;-148.88;89.80;77609.81;5016675;28;20021;-85
2023/03/16 03:40:14;;;;;;;9.95;4.00;;;;;;;-148.88;90.07;77611.84;5016571;28;20022;-85
2023/03/16 03:42:40;;;;;;;12.18;3.78;;;;;;;-148.88;90.70;77617.94;5034538;28;20026;-85
2023/03/16 03:45:07;;;;;;;12.73;4.82;;;;;;;-148.88;91.12;77617.94;5016892;28;20027;-86
2023/03/16 03:47:33;;;;;;;10.25;3.83;;;;;;;-148.88;91.19;77622.00;5034177;28;20072;-85
2023/03/16 03:49:58;;;;;;;6.95;3.75;;;;;;;-148.88;91.66;77617.94;5034364;28;20056;-85
2023/03/16 03:52:23;;;;;;;7.97;3.28;;;;;;;-148.88;91.75;77626.06;5016531;28;20022;-85
2023/03/16 03:54:48;;;;;;;6.43;3.17;;;;;;;-148.88;92.43;77630.13;5017307;28;20033;-85
2023/03/16 03:57:14;;;;;;;7.53;3.75;;;;;;;-148.88;92.73;77636.22;5016642;28;20384;-85
2023/03/16 03:59:42;;;;;;;15.75;3.67;;;;;;;-148.88;93.12;77632.16;5016165;28;20043;-85
2023/03/16 04:02:12;;;;;;;7.55;3.50;;;;;;;-148.88;93.28;77640.28;5034226;28;20060;-85
2023/03/16 04:04:38;;;;;;;8.10;3.85;;;;;;;-148.88;93.59;77642.31;5035756;28;20034;-84
2023/03/16 04:07:05;;;;;;;10.68;3.80;;;;;;;-148.88;93.60;77636.22;5016016;28;20017;-84
2023/03/16 04:09:33;;;;;;;7.22;2.97;;;;;;;-148.88;93.72;77642.31;5016089;28;20025;-85
2023/03/16 04:12:05;;;;;;;6.78;3.58;;;;;;;-148.88;93.94;77648.41;5015751;28;20029;-85
2023/03/16 04:14:31;;;;;;;5.95;3.17;;;;;;;-148.88;92.38;77593.53;5033741;28;20057;-84
2023/03/16 04:16:56;;;;;;;9.98;3.38;;;;;;;-148.88;90.92;77577.28;5016139;28;20022;-85
2023/03/16 04:19:23;;;;;;;8.18;3.05;;;;;;;-148.88;90.65;77587.44;5033773;28;20025;-87
2023/03/16 04:21:49;;;;;;;9.10;3.17;;;;;;;-148.88;90.05;77581.34;5015848;28;20022;-85
2023/03/16 04:24:14;;;;;;;7.65;2.92;;;;;;;-148.88;89.91;77581.34;5015631;28;20044;-85
2023/03/16 04:26:43;;;;;;;11.90;3.63;;;;;;;-148.88;89.77;77577.28;5015881;28;20112;-86
2023/03/16 04:29:09;;;;;;;10.35;3.45;;;;;;;-148.88;90.07;77601.66;5015783;28;20442;-84
2023/03/16 04:31:34;;;;;;;8.80;3.15;;;;;;;-148.88;90.96;77597.59;5033634;28;20021;-85
2023/03/16 04:34:01;;;;;;;6.47;3.58;;;;;;;-148.88;91.48;77605.75;5033762;28;20056;-84
2023/03/16 04:36:27;;;;;;;9.77;3.38;;;;;;;-148.88;91.99;77599.63;5034623;28;20114;-84
2023/03/16 04:38:52;;;;;;;5.10;2.88;;;;;;;-148.88;92.78;77597.59;5016722;28;20476;-84
2023/03/16 04:41:19;;;;;;;9.23;3.38;;;;;;;-148.88;92.75;77601.66;5016779;28;20086;-84
2023/03/16 04:43:47;;;;;;;6.75;3.03;;;;;;;-148.88;93.00;77607.78;5016415;28;20021;-84
2023/03/16 04:46:13;;;;;;;8.23;3.45;;;;;;;-148.88;93.07;77605.75;5033847;28;20044;-83
2023/03/16 04:48:39;;;;;;;6.07;2.65;;;;;;;-148.88;92.91;77601.66;5033763;28;20036;-84
2023/03/16 04:51:04;;;;;;;7.15;3.50;;;;;;;-148.88;92.68;77599.63;5033909;28;20017;-84
2023/03/16 04:53:33;;;;;;;8.25;3.50;;;;;;;-148.88;92.30;77597.59;5034292;28;20101;-84
2023/03/16 04:55:59;;;;;;;7.15;3.25;;;;;;;-148.88;92.64;77599.63;5015147;28;20026;-84
2023/03/16 04:58:24;;;;;;;5.53;3.33;;;;;;;-148.88;92.70;77601.66;5015586;28;20525;-82
2023/03/16 05:00:54;;;;;;;7.85;3.17;;;;;;;-148.88;93.00;77595.56;5015386;28;20029;-83
2023/03/16 05:03:20;;;;;;;8.63;3.50;;;;;;;-148.88;93.04;77589.47;5015559;28;20021;-83
2023/03/16 05:05:46;;;;;;;10.25;3.63;;;;;;;-148.88;93.00;77589.47;5033542;28;20025;-83
2023/03/16 05:08:11;;;;;;;11.05;3.25;;;;;;;-148.88;93.04;77579.31;5015721;28;20022;-83
2023/03/16 05:10:37;;;;;;;6.25;3.17;;;;;;;-148.88;93.07;77577.28;5016069;28;20124;-83
2023/03/16 05:13:03;;;;;;;6.82;3.30;;;;;;;-148.88;92.73;77567.13;5016226;28;20100;-84
2023/03/16 05:15:29;;;;;;;6.40;3.20;;;;;;;-148.88;92.45;77565.09;5016952;28;20041;-83
2023/03/16 05:17:54;;;;;;;7.38;3.75;;;;;;;-148.88;92.41;77559.00;5017225;28;20522;-84
2023/03/16 05:20:21;;;;;;;7.50;3.05;;;;;;;-148.88;92.33;77561.03;5015944;28;20021;-83
2023/03/16 05:22:47;;;;;;;11.35;4.10;;;;;;;-148.88;91.60;77556.97;5016409;28;20476;-83
2023/03/16 05:25:13;;;;;;;9.23;3.40;;;;;;;-148.88;91.24;77524.44;5036303;28;20033;-84
2023/03/16 05:27:50;;;;;;;7.25;3.53;;;;;;;-148.88;91.17;77526.47;5021149;28;20021;-84
2023/03/16 05:30:17;;;;;;;8.57;3.67;;;;;;;-148.88;90.65;77512.25;5019513;28;20112;-84
2023/03/16 05:32:44;;;;;;;5.93;3.20;;;;;;;-148.88;90.44;77500.06;5037126;28;20392;-86
2023/03/16 05:35:13;;;;;;;9.40;3.03;;;;;;;-148.88;89.87;77483.81;5019477;28;20029;-85
2023/03/16 05:37:40;;;;;;;6.70;3.42;;;;;;;-148.88;88.90;77467.56;5037700;28;20056;-83
2023/03/16 05:40:26;;;;;;;6.15;3.17;;;;;;;-148.88;88.78;77459.44;5038005;28;20480;-84
2023/03/16 05:42:56;;;;;;;6.40;3.38;;;;;;;-148.88;88.28;77447.22;5019249;28;20058;-86
2023/03/16 05:45:23;;;;;;;13.00;3.67;;;;;;;-148.88;88.01;77447.22;5019526;28;20029;-86
2023/03/16 05:47:49;;;;;;;7.28;3.30;;;;;;;-148.88;87.02;77433.00;5037166;28;20029;-85
2023/03/16 05:50:16;;;;;;;7.22;3.03;;;;;;;-148.88;86.57;77418.78;5036809;28;20104;-85
2023/03/16 05:52:43;;;;;;;8.02;3.47;;;;;;;-148.88;86.54;77412.69;5019653;28;20551;-84
2023/03/16 05:55:13;;;;;;;6.72;3.00;;;;;;;-148.88;86.28;77406.59;5020155;28;20029;-84
2023/03/16 05:57:39;;;;;;;12.30;3.35;;;;;;;-148.88;86.61;77408.63;5037981;28;20033;-84
2023/03/16 06:00:26;;;;;;;6.75;3.25;;;;;;;-148.88;86.37;77406.59;5021459;28;20163;-84
2023/03/16 06:02:52;;;;;;;6.75;2.70;;;;;;;-148.88;86.25;77402.53;5019660;28;20030;-84
2023/03/16 06:05:20;;;;;;;8.05;3.58;;;;;;;-148.88;86.09;77402.53;5018284;28;20033;-85
2023/03/16 06:07:46;;;;;;;8.00;3.17;;;;;;;-148.88;86.04;77390.34;5036493;28;20468;-84
2023/03/16 06:10:12;;;;;;;7.22;3.53;;;;;;;-148.88;85.98;77390.34;5018915;28;20122;-84
2023/03/16 06:12:37;;;;;;;7.10;3.40;;;;;;;-148.88;85.64;77386.28;5037072;28;20100;-84
2023/03/16 06:15:08;;;;;;;7.45;3.30;;;;;;;-148.88;86.09;77382.22;5036962;28;20021;-84
2023/03/16 06:17:35;;;;;;;12.15;3.30;;;;;;;-148.88;86.33;77376.13;5036537;28;20025;-85
2023/03/16 06:20:00;;;;;;;6.95;3.17;;;;;;;-148.88;86.38;77370.00;5018013;28;20095;-85
2023/03/16 06:22:26;;;;;;;8.43;3.50;;;;;;;-148.88;87.30;77376.13;5036020;28;20415;-85
2023/03/16 06:24:52;;;;;;;8.63;3.65;;;;;;;-148.88;86.94;77374.09;5035815;28;20025;-85
2023/03/16 06:27:21;;;;;;;9.07;3.92;;;;;;;-148.88;86.73;77363.91;5035657;28;20075;-84
2023/03/16 06:29:46;;;;;;;10.77;3.30;;;;;;;-148.88;86.75;77357.81;5035773;28;20421;-85
2023/03/16 06:32:12;;;;;;;10.50;2.95;;;;;;;-148.88;86.94;77363.91;5035760;28;20079;-85
2023/03/16 06:34:38;;;;;;;8.20;3.15;;;;;;;-148.88;87.35;77367.97;5035977;28;20025;-85
2023/03/16 06:37:04;;;;;;;7.07;3.30;;;;;;;-148.88;87.92;77363.91;5034701;28;20025;-85
2023/03/16 06:39:29;;;;;;;10.43;3.92;;;;;;;-148.88;88.36;77361.88;5017635;28;20476;-85
2023/03/16 06:41:55;;;;;;;9.25;3.15;;;;;;;-148.88;88.16;77361.88;5035400;28;20033;-84
2023/03/16 06:44:21;;;;;;;8.15;3.60;;;;;;;-148.88;88.71;77363.91;5017509;28;20025;-85
2023/03/16 06:46:46;;;;;;;9.30;3.22;;;;;;;-148.88;88.68;77355.78;5018005;28;20030;-84
2023/03/16 06:49:11;;;;;;;10.23;3.60;;;;;;;-148.88;89.15;77361.88;5017812;28;20068;-85
2023/03/16 06:51:36;;;;;;;8.88;3.42;;;;;;;-148.88;89.25;77357.81;5035475;28;20527;-85
2023/03/16 06:54:02;;;;;;;10.15;3.75;;;;;;;-148.88;88.99;77353.75;5035782;28;20029;-85
2023/03/16 06:56:27;;;;;;;9.23;3.80;;;;;;;-148.88;88.97;77351.72;5017809;28;20017;-84
2023/03/16 06:58:52;;;;;;;7.75;3.28;;;;;;;-148.88;89.54;77363.91;5020296;28;20546;-86
2023/03/16 07:01:18;;;;;;;10.27;3.33;;;;;;;-148.88;89.43;77355.78;5034872;28;20025;-84
2023/03/16 07:03:43;;;;;;;10.07;3.47;;;;;;;-148.88;89.26;77353.75;5035330;28;20440;-85
2023/03/16 07:06:08;;;;;;;7.30;3.00;;;;;;;-148.88;88.24;77333.44;5017619;28;20029;-85
2023/03/16 07:08:34;;;;;;;7.90;3.50;;;;;;;-148.88;88.54;77329.38;5035171;28;20476;-85
2023/03/16 07:11:00;;;;;;;9.80;3.08;;;;;;;-148.88;88.57;77321.25;5035034;28;20056;-85
2023/03/16 07:13:25;;;;;;;7.95;3.13;;;;;;;-148.88;88.17;77315.16;5034780;28;20037;-84
2023/03/16 07:15:51;;;;;;;6.85;2.85;;;;;;;-148.88;87.58;77296.88;5035035;28;20029;-84
2023/03/16 07:18:17;;;;;;;10.55;3.72;;;;;;;-148.88;87.05;77288.72;5034696;28;20024;-84
2023/03/16 07:20:43;;;;;;;6.70;2.90;;;;;;;-148.88;86.44;77278.56;5034664;28;20076;-85
2023/03/16 07:23:08;;;;;;;10.10;3.40;;;;;;;-148.88;85.81;77262.31;5016637;28;20025;-84
2023/03/16 07:25:33;;;;;;;5.35;2.70;;;;;;;-148.88;85.47;77264.34;5017027;28;20025;-84
2023/03/16 07:27:59;;;;;;;6.95;2.38;;;;;;;-148.88;85.31;77244.03;5034871;28;20024;-85
2023/03/16 07:30:24;;;;;;;8.00;3.22;;;;;;;-148.88;84.41;77239.97;5034287;28;20352;-85
2023/03/16 07:32:50;;;;;;;8.82;3.03;;;;;;;-148.88;84.05;77229.81;5016623;28;20025;-84
2023/03/16 07:35:16;;;;;;;6.47;2.67;;;;;;;-148.88;82.77;77215.59;5034614;28;20033;-85
2023/03/16 07:37:41;;;;;;;9.02;2.72;;;;;;;-148.88;80.99;77187.13;5034273;28;20026;-84
2023/03/16 07:40:08;;;;;;;7.03;2.45;;;;;;;-148.88;79.47;77174.94;5016280;28;20025;-85
2023/03/16 07:42:34;;;;;;;9.07;2.55;;;;;;;-148.88;77.24;77150.56;5016293;28;20057;-84
2023/03/16 07:45:00;;;;;;;9.07;2.67;;;;;;;-148.88;76.34;77130.25;5016426;28;20142;-85
2023/03/16 07:47:25;;;;;;;5.13;2.08;;;;;;;-148.88;75.30;77124.16;5015925;28;20048;-85
2023/03/16 07:49:51;;;;;;;7.05;2.20;;;;;;;-148.88;74.39;77105.84;5016199;28;20057;-84
2023/03/16 07:52:16;;;;;;;4.75;1.67;;;;;;;-148.88;73.72;77095.69;5033962;28;20025;-85
2023/03/16 07:54:42;;;;;;;6.05;2.72;;;;;;;-148.88;72.06;77081.47;5033808;28;20131;-85
2023/03/16 07:57:07;;;;;;;6.93;2.33;;;;;;;-148.88;72.38;77081.47;5016829;28;20021;-84
2023/03/16 07:59:32;;;;;;;6.75;2.15;;;;;;;-148.88;70.98;77071.31;5033985;28;20029;-84
2023/03/16 08:01:58;;;;;;;4.68;2.00;;;;;;;-148.88;70.92;77061.16;5033828;28;20025;-84
2023/03/16 08:04:24;;;;;;;5.85;1.90;;;;;;;-148.88;70.31;77057.09;5033854;28;20033;-84
2023/03/16 08:06:51;;;;;;;4.15;1.58;;;;;;;-148.88;69.24;77053.03;5033622;28;20036;-84
2023/03/16 08:09:16;;;;;;;4.90;1.52;;;;;;;-148.88;69.06;77040.84;5016288;28;20055;-85
2023/03/16 08:11:42;;;;;;;4.00;1.90;;;;;;;-148.88;69.16;77036.78;5034082;28;20030;-85
2023/03/16 08:14:07;;;;;;;4.72;1.60;;;;;;;-148.88;68.50;77026.63;5017283;28;20092;-84
2023/03/16 08:16:32;;;;;;;5.90;1.90;;;;;;;-148.88;67.46;77022.56;5033860;28;20112;-85
2023/03/16 08:18:58;;;;;;;5.60;1.70;;;;;;;-148.88;67.61;77018.50;5016146;28;20036;-86
2023/03/16 08:21:24;;;;;;;5.93;1.88;;;;;;;-148.88;68.02;77008.34;5016367;28;20548;-84
2023/03/16 08:23:50;;;;;;;4.28;1.50;;;;;;;-148.88;67.74;77000.19;5015602;28;20108;-83
2023/03/16 08:26:17;;;;;;;4.82;1.35;;;;;;;-148.88;67.83;77002.22;5015410;28;20018;-85
2023/03/16 08:28:47;;;;;;;3.33;1.70;;;;;;;-148.88;67.43;77000.19;5033339;28;20511;-85
2023/03/16 08:31:14;;;;;;;5.47;1.73;;;;;;;-148.88;67.98;76992.06;5015256;28;20025;-85
2023/03/16 08:33:44;;;;;;;3.70;1.40;;;;;;;-148.88;67.44;76975.81;5033118;28;20017;-84
2023/03/16 08:36:11;;;;;;;5.50;1.70;;;;;;;-148.88;67.26;76985.97;5032973;28;20052;-84
2023/03/16 08:38:38;;;;;;;3.38;1.58;;;;;;;-148.88;67.31;76979.88;5033125;28;20034;-85
2023/03/16 08:41:04;;;;;;;4.75;1.73;;;;;;;-148.88;67.04;76967.69;5015455;28;20435;-84
2023/03/16 08:43:31;;;;;;;2.72;1.40;;;;;;;-148.88;68.57;76963.63;5033096;28;20538;-85
2023/03/16 08:45:57;;;;;;;4.60;2.15;;;;;;;-148.88;68.69;76953.47;5032958;28;20026;-84
2023/03/16 08:48:23;;;;;;;5.55;1.77;;;;;;;-148.88;68.05;76935.19;5015101;28;20033;-85
2023/03/16 08:50:48;;;;;;;3.83;1.70;;;;;;;-148.88;67.19;76927.06;5015547;28;20104;-85
2023/03/16 08:53:13;;;;;;;3.75;1.60;;;;;;;-148.88;65.52;76935.19;5015321;28;20432;-84
2023/03/16 08:55:43;;;;;;;3.80;1.45;;;;;;;-148.88;64.38;76918.94;5032940;28;20025;-85
2023/03/16 08:58:09;;;;;;;4.07;1.33;;;;;;;-148.88;64.59;76916.91;5014753;28;20021;-84
2023/03/16 09:00:35;;;;;;;6.57;1.42;;;;;;;-148.88;64.33;76902.69;5032296;28;20026;-85
2023/03/16 09:03:01;;;;;;;9.32;2.35;;;;;;;-148.88;62.70;76874.22;5033179;28;20033;-85
2023/03/16 09:05:27;;;;;;;5.07;1.50;;;;;;;-148.88;61.52;76874.22;5015512;28;20160;-84
2023/03/16 09:07:52;;;;;;;4.68;1.75;;;;;;;-148.88;61.49;76866.09;5032647;28;20084;-84
2023/03/16 09:10:18;;;;;;;4.78;1.58;;;;;;;-148.88;60.12;76857.97;5014882;28;20025;-83
2023/03/16 09:12:44;;;;;;;3.65;1.60;;;;;;;-148.88;60.94;76825.47;5033255;28;20037;-83
2023/03/16 09:15:12;;;;;;;5.60;1.42;;;;;;;-148.88;62.23;76788.91;5032736;28;20076;-82
2023/03/16 09:17:40;;;;;;;5.72;1.55;;;;;;;-148.88;60.04;76780.78;5015342;28;20140;-83
2023/03/16 09:20:09;;;;;;;3.17;1.80;;;;;;;-148.88;59.93;76774.69;5015170;28;20023;-85
2023/03/16 09:22:36;;;;;;;4.03;1.73;;;;;;;-148.88;61.04;76750.28;5015076;28;20079;-85
2023/03/16 09:25:04;;;;;;;4.72;1.48;;;;;;;-148.88;57.69;76748.25;5015119;28;20028;-85
2023/03/16 09:27:29;;;;;;;4.30;1.67;;;;;;;-148.88;59.07;76715.75;5014850;28;20055;-86
2023/03/16 09:29:55;;;;;;;5.88;1.30;;;;;;;-148.88;59.11;76697.47;5014842;28;20025;-86
2023/03/16 09:32:20;;;;;;;4.38;1.60;;;;;;;-148.88;57.76;76689.34;5015177;28;20067;-86
2023/03/16 09:34:46;;;;;;;4.25;1.60;;;;;;;-148.88;56.30;76673.09;5032437;28;20017;-86
2023/03/16 09:37:11;;;;;;;3.53;1.70;;;;;;;-148.88;56.69;76638.56;5035728;28;20028;-84
2023/03/16 09:39:37;;;;;;;5.38;2.00;;;;;;;-148.88;55.41;76634.50;5015118;28;20033;-84
2023/03/16 09:42:27;;;;;;;4.30;1.70;;;;;;;-148.88;54.28;76593.84;5015316;28;20411;-84
2023/03/16 09:45:30;;;;;;;3.83;1.73;;;;;;;-148.88;52.26;76589.78;5014900;28;20078;-84
2023/03/16 09:48:00;;;;;;;3.90;1.50;;;;;;;-148.88;52.44;76561.34;4986053;28;20580;-83
2023/03/16 09:50:30;;;;;;;3.97;1.30;;;;;;;-148.88;50.94;76561.34;5014776;28;20285;-85
2023/03/16 09:53:06;;;;;;;4.15;1.40;;;;;;;-148.88;52.16;76543.06;5015136;28;20028;-82
2023/03/16 09:55:35;;;;;;;6.07;1.52;;;;;;;-148.88;52.74;76518.69;5032690;28;20034;-84
2023/03/16 09:58:03;;;;;;;2.75;1.20;;;;;;;-148.88;53.67;76551.19;5014967;28;20033;-84
2023/03/16 10:00:33;;;;;;;5.82;2.25;;;;;;;-148.88;52.12;76563.38;5014753;28;20396;-84
2023/03/16 10:03:20;;;;;;;3.75;1.55;;;;;;;-148.88;51.84;76606.06;5015651;28;20395;-83
2023/03/16 10:05:53;;;;;;;4.70;1.50;;;;;;;-148.88;51.91;76575.56;5014740;28;20439;-84
2023/03/16 10:08:24;;;;;;;3.47;1.83;;;;;;;-148.88;51.19;76563.38;5014780;28;20076;-83
2023/03/16 10:11:19;;;;;;;4.55;1.63;;;;;;;-148.88;52.70;76561.34;5016687;28;20091;-84
2023/03/16 10:14:08;;;;;;;7.68;1.95;;;;;;;-148.88;53.26;76581.66;5019103;28;20438;-84
2023/03/16 10:16:54;;;;;;;3.25;1.73;;;;;;;-148.88;52.95;76557.28;5018321;28;20419;-84
2023/03/16 10:19:39;;;;;;;4.70;1.50;;;;;;;-148.88;52.16;76565.41;5018128;28;20025;-84
2023/03/16 10:22:32;;;;;;;6.80;1.63;;;;;;;-148.88;51.86;76541.03;5017924;28;20502;-84
2023/03/16 10:25:06;;;;;;;4.78;1.83;;;;;;;-148.88;52.31;76549.16;5018571;28;20021;-84
2023/03/16 10:27:37;;;;;;;4.15;1.90;;;;;;;-148.88;52.20;76545.09;5018444;28;20025;-84
2023/03/16 10:30:17;;;;;;;7.63;1.88;;;;;;;-148.88;51.97;76547.13;5017866;28;20025;-84
2023/03/16 10:32:43;;;;;;;3.50;1.50;;;;;;;-148.88;51.72;76553.22;5018004;28;20112;-86
2023/03/16 10:35:26;;;;;;;4.20;1.98;;;;;;;-148.88;52.42;76536.97;5017886;28;20048;-86
2023/03/16 10:37:51;;;;;;;4.75;1.50;;;;;;;-148.88;51.81;76516.66;5017835;28;20083;-84
2023/03/16 10:40:19;;;;;;;5.55;1.95;;;;;;;-148.88;51.05;76522.75;5017616;28;20025;-85
2023/03/16 10:42:47;;;;;;;4.28;1.60;;;;;;;-148.88;50.46;76504.47;5017403;28;20021;-84
2023/03/16 10:45:23;;;;;;;4.40;2.08;;;;;;;-148.88;50.89;76510.56;5017704;28;20083;-84
2023/03/16 10:47:48;;;;;;;3.80;1.67;;;;;;;-148.88;50.89;76498.38;5035659;28;20021;-86
2023/03/16 10:50:19;;;;;;;6.05;1.70;;;;;;;-148.88;51.72;76480.09;5017474;28;20519;-85
2023/03/16 10:52:47;;;;;;;4.15;1.90;;;;;;;-148.88;50.58;76471.97;5017695;28;20029;-84
2023/03/16 10:55:31;;;;;;;2.97;1.55;;;;;;;-148.88;51.13;76467.91;5017884;28;20021;-83
2023/03/16 10:57:57;;;;;;;4.13;1.65;;;;;;;-148.88;50.71;76488.22;5017583;28;20036;-84
2023/03/16 11:00:29;;;;;;;3.30;1.75;;;;;;;-148.88;50.79;76455.72;5017360;28;20143;-84
2023/03/16 11:02:58;;;;;;;4.13;1.83;;;;;;;-148.88;50.10;76459.78;5017378;28;20068;-84
2023/03/16 11:05:32;;;;;;;5.20;2.00;;;;;;;-148.88;51.36;76431.34;5017523;28;20258;-84
2023/03/16 11:08:12;;;;;;;6.80;2.03;;;;;;;-148.88;50.83;76431.34;5017537;28;20116;-85
2023/03/16 11:10:44;;;;;;;6.72;2.17;;;;;;;-148.88;50.26;76441.50;5017345;28;20113;-84
2023/03/16 11:13:16;;;;;;;4.20;1.85;;;;;;;-148.88;50.59;76413.03;5017069;28;20037;-84
2023/03/16 11:16:08;;;;;;;4.45;1.98;;;;;;;-148.88;50.67;76392.72;5016925;28;20084;-84
2023/03/16 11:18:42;;;;;;;4.47;1.52;;;;;;;-148.88;49.47;76384.59;5017860;28;20092;-84
2023/03/16 11:21:16;;;;;;;5.30;1.70;;;;;;;-148.88;50.89;76341.94;5016612;28;20508;-84